Time;durP1;ratioP1;P1;durP2;ratioP2;P2;SDS_P1;SDS_P2;PMS_P1;PMS_P2;Temp;Humidity;BMP_temperature;BMP_pressure;BME280_temperature;BME280_humidity;BME280_pressure;Samples;Min_cycle;Max_cycle;Signal;HPM_P1;HPM_P2
2022/06/26 00:02:13;;;;;;;25.45;7.20;;;24.40;99.90;;;;;;6165477;23;20011;-90
2022/06/26 00:04:40;;;;;;;19.92;6.68;;;24.30;99.90;;;;;;6165340;23;20012;-91
2022/06/26 00:07:07;;;;;;;22.38;7.03;;;24.30;99.90;;;;;;6165483;23;20048;-91
2022/06/26 00:09:34;;;;;;;27.17;7.20;;;24.30;99.90;;;;;;6165474;23;20005;-90
2022/06/26 00:12:00;;;;;;;22.05;7.43;;;24.20;99.90;;;;;;6165239;23;20008;-90
2022/06/26 00:14:27;;;;;;;27.67;7.78;;;24.20;99.90;;;;;;6165311;23;20005;-89
2022/06/26 00:16:56;;;;;;;23.08;7.60;;;24.30;99.90;;;;;;6165346;23;20009;-91
2022/06/26 00:19:33;;;;;;;20.40;7.00;;;24.20;99.90;;;;;;6165997;23;20135;-90
2022/06/26 00:22:05;;;;;;;17.85;7.32;;;24.20;99.90;;;;;;6167326;23;20036;-90
2022/06/26 00:24:45;;;;;;;21.05;8.30;;;24.30;99.90;;;;;;6166671;23;20004;-90
2022/06/26 00:27:12;;;;;;;22.60;9.18;;;24.40;99.90;;;;;;6166884;23;20016;-91
2022/06/26 00:29:39;;;;;;;21.00;8.30;;;24.40;99.90;;;;;;6167048;23;20032;-90
2022/06/26 00:32:06;;;;;;;24.40;9.15;;;24.50;99.90;;;;;;6166697;23;20060;-91
2022/06/26 00:34:33;;;;;;;26.50;10.88;;;24.60;99.90;;;;;;6166694;23;20013;-91
2022/06/26 00:36:59;;;;;;;22.95;9.70;;;24.60;99.90;;;;;;6168061;23;20431;-90
2022/06/26 00:39:26;;;;;;;27.17;11.40;;;24.60;99.90;;;;;;6167025;23;20084;-90
2022/06/26 00:41:53;;;;;;;35.90;11.25;;;24.70;99.90;;;;;;6166982;23;20406;-90
2022/06/26 00:44:23;;;;;;;29.50;11.65;;;24.70;99.90;;;;;;6167319;23;20001;-90
2022/06/26 00:46:53;;;;;;;28.02;10.80;;;24.70;99.90;;;;;;6167351;23;20066;-91
2022/06/26 00:49:21;;;;;;;31.55;12.50;;;24.70;99.90;;;;;;6180522;23;20019;-91
2022/06/26 00:51:55;;;;;;;27.25;12.18;;;24.70;99.90;;;;;;6197437;23;20043;-90
2022/06/26 00:54:26;;;;;;;37.63;12.88;;;24.70;99.90;;;;;;6221529;23;20494;-91
2022/06/26 00:56:56;;;;;;;31.77;12.07;;;24.70;99.90;;;;;;6196760;23;20009;-90
2022/06/26 00:59:33;;;;;;;30.27;12.23;;;24.70;99.90;;;;;;6196867;23;20449;-90
2022/06/26 01:02:00;;;;;;;31.58;12.70;;;24.70;99.90;;;;;;6196577;22;20034;-90
2022/06/26 01:04:27;;;;;;;33.28;12.90;;;24.70;99.90;;;;;;6197076;23;20031;-90
2022/06/26 01:06:54;;;;;;;33.75;12.10;;;24.80;99.90;;;;;;6196435;23;20023;-91
2022/06/26 01:09:21;;;;;;;31.55;13.90;;;24.80;99.90;;;;;;6196981;23;20020;-90
2022/06/26 01:11:50;;;;;;;30.48;12.80;;;24.80;99.90;;;;;;6221882;23;20079;-91
2022/06/26 01:14:18;;;;;;;35.28;12.85;;;24.80;99.90;;;;;;6196355;23;20089;-90
2022/06/26 01:16:49;;;;;;;33.75;14.30;;;24.90;99.90;;;;;;6221512;23;20012;-91
2022/06/26 01:19:18;;;;;;;31.13;12.88;;;24.90;99.90;;;;;;6221728;22;20095;-91
2022/06/26 01:21:46;;;;;;;36.63;13.80;;;24.90;99.90;;;;;;6196736;23;20012;-90
2022/06/26 01:24:19;;;;;;;30.75;12.93;;;24.90;99.90;;;;;;6222290;23;20016;-91
2022/06/26 01:26:46;;;;;;;31.48;14.95;;;24.90;99.90;;;;;;6195877;23;20358;-90
2022/06/26 01:29:13;;;;;;;33.05;14.98;;;24.90;99.90;;;;;;6196691;23;20076;-91
2022/06/26 01:31:40;;;;;;;34.92;13.93;;;24.90;99.90;;;;;;6195501;23;20083;-90
2022/06/26 01:34:08;;;;;;;33.88;14.68;;;24.90;99.90;;;;;;6196329;23;20004;-91
2022/06/26 01:36:36;;;;;;;31.20;14.65;;;24.90;99.90;;;;;;6197205;23;20066;-90
2022/06/26 01:39:05;;;;;;;32.75;15.07;;;24.90;99.90;;;;;;6192920;23;20024;-90
2022/06/26 01:41:31;;;;;;;39.28;16.33;;;24.90;99.90;;;;;;6221148;23;20009;-91
2022/06/26 01:43:58;;;;;;;37.92;16.80;;;24.90;99.90;;;;;;6196259;23;20004;-90
2022/06/26 01:46:25;;;;;;;32.20;15.45;;;24.90;99.90;;;;;;6221206;23;20027;-91
2022/06/26 01:48:53;;;;;;;33.88;16.63;;;24.90;99.90;;;;;;6198349;23;20012;-90
2022/06/26 01:51:20;;;;;;;28.60;13.43;;;24.90;99.90;;;;;;6223751;23;20474;-90
2022/06/26 01:53:50;;;;;;;29.98;12.85;;;24.80;99.90;;;;;;6197475;23;20062;-90
2022/06/26 01:56:18;;;;;;;28.65;13.57;;;24.70;99.90;;;;;;6196429;23;20008;-90
2022/06/26 01:58:50;;;;;;;33.80;12.95;;;24.60;99.90;;;;;;6196613;23;20091;-91
2022/06/26 02:01:21;;;;;;;25.38;11.90;;;24.70;99.90;;;;;;6220894;23;20462;-91
2022/06/26 02:03:53;;;;;;;27.38;11.43;;;24.60;99.90;;;;;;6221132;23;20063;-90
2022/06/26 02:06:20;;;;;;;27.88;12.85;;;24.60;99.90;;;;;;6220507;23;20043;-90
2022/06/26 02:08:46;;;;;;;21.15;10.73;;;24.60;99.90;;;;;;6196644;23;20026;-91
2022/06/26 02:14:06;;;;;;;26.63;11.13;;;24.50;99.90;;;;;;6221139;23;20008;-90
2022/06/26 02:16:42;;;;;;;23.63;10.15;;;24.60;99.90;;;;;;6197581;23;20073;-91
2022/06/26 02:19:14;;;;;;;27.65;10.35;;;24.60;99.90;;;;;;6221082;23;20091;-91
2022/06/26 02:21:43;;;;;;;28.20;10.95;;;24.60;99.90;;;;;;6220782;23;20031;-91
2022/06/26 02:24:10;;;;;;;21.50;10.45;;;24.60;99.90;;;;;;6196006;23;20444;-91
2022/06/26 02:26:37;;;;;;;26.98;10.38;;;24.60;99.90;;;;;;6221448;23;20385;-90
2022/06/26 02:29:14;;;;;;;23.63;10.45;;;24.50;99.90;;;;;;6196026;23;20035;-91
2022/06/26 02:31:53;;;;;;;22.38;9.73;;;24.50;99.90;;;;;;6220748;23;20260;-90
2022/06/26 02:34:19;;;;;;;22.17;10.68;;;24.40;99.90;;;;;;6195952;23;20044;-91
2022/06/26 02:36:46;;;;;;;29.08;11.50;;;24.40;99.90;;;;;;6195708;23;20007;-90
2022/06/26 02:39:13;;;;;;;33.03;11.48;;;24.50;99.90;;;;;;6221369;23;20014;-91
2022/06/26 02:41:39;;;;;;;23.50;10.90;;;24.50;99.90;;;;;;6195561;23;20011;-91
2022/06/26 02:44:06;;;;;;;27.98;11.82;;;24.60;99.90;;;;;;6220433;23;20012;-91
2022/06/26 02:46:33;;;;;;;24.15;11.75;;;24.60;99.90;;;;;;6195262;23;20016;-90
2022/06/26 02:49:00;;;;;;;27.75;11.88;;;24.60;99.90;;;;;;6222446;23;20083;-91
2022/06/26 02:51:26;;;;;;;30.73;12.05;;;24.60;99.90;;;;;;6195918;23;20008;-91
2022/06/26 02:53:54;;;;;;;30.65;12.32;;;24.60;99.90;;;;;;6220644;23;20008;-90
2022/06/26 02:56:21;;;;;;;33.90;12.50;;;24.60;99.90;;;;;;6196514;23;20000;-91
2022/06/26 02:58:48;;;;;;;35.92;11.23;;;24.50;99.90;;;;;;6220538;23;20091;-91
2022/06/26 03:01:19;;;;;;;23.75;11.48;;;24.50;99.90;;;;;;6195878;23;20004;-91
2022/06/26 03:03:47;;;;;;;33.70;11.63;;;24.40;99.90;;;;;;6221492;23;20012;-90
2022/06/26 03:06:14;;;;;;;24.25;11.00;;;24.40;99.90;;;;;;6195477;23;20012;-91
2022/06/26 03:08:40;;;;;;;24.25;11.80;;;24.20;99.90;;;;;;6220555;23;20011;-91
2022/06/26 03:11:07;;;;;;;27.95;10.57;;;24.20;99.90;;;;;;6195401;23;20004;-91
2022/06/26 03:13:34;;;;;;;24.02;11.20;;;24.10;99.90;;;;;;6220638;23;20008;-89
2022/06/26 03:16:00;;;;;;;23.33;10.82;;;24.10;99.90;;;;;;6195887;23;20005;-91
2022/06/26 03:18:27;;;;;;;29.90;11.35;;;24.10;99.90;;;;;;6195471;23;20040;-90
2022/06/26 03:20:55;;;;;;;31.35;11.65;;;24.10;99.90;;;;;;6220119;23;20008;-90
2022/06/26 03:24:01;;;;;;;25.70;11.88;;;24.10;99.90;;;;;;6195900;23;20015;-91
2022/06/26 03:26:12;;;;;;;31.55;11.10;;;24.10;99.90;;;;;;6220394;23;20019;-91
2022/06/26 03:28:39;;;;;;;27.70;11.23;;;24.20;99.90;;;;;;6195931;23;20001;-91
2022/06/26 03:31:06;;;;;;;25.90;11.32;;;24.20;99.90;;;;;;6195722;22;20091;-90
2022/06/26 03:33:32;;;;;;;27.13;11.57;;;24.20;99.90;;;;;;6195978;23;20084;-91
2022/06/26 03:36:02;;;;;;;23.40;11.18;;;24.10;99.90;;;;;;6220610;23;20427;-91
2022/06/26 03:38:29;;;;;;;31.33;12.18;;;24.10;99.90;;;;;;6220867;23;20008;-91
2022/06/26 03:40:56;;;;;;;24.65;10.70;;;24.20;99.90;;;;;;6196646;23;20000;-91
2022/06/26 03:43:42;;;;;;;28.05;10.25;;;24.20;99.90;;;;;;6220654;22;20012;-91
2022/06/26 03:46:12;;;;;;;21.83;10.00;;;24.20;99.90;;;;;;6220086;23;20446;-90
2022/06/26 03:48:43;;;;;;;25.52;10.02;;;24.20;99.90;;;;;;6195992;23;20016;-91
2022/06/26 03:51:10;;;;;;;28.63;10.48;;;24.20;99.90;;;;;;6220122;23;20418;-91
2022/06/26 03:53:39;;;;;;;26.40;10.15;;;24.20;99.90;;;;;;6195670;23;20446;-90
2022/06/26 03:56:06;;;;;;;26.73;10.40;;;24.20;99.90;;;;;;6222436;23;20446;-92
2022/06/26 03:58:51;;;;;;;30.33;11.95;;;24.20;99.90;;;;;;6198403;23;20019;-91
2022/06/26 04:01:19;;;;;;;26.83;11.02;;;24.30;99.90;;;;;;6222567;23;20016;-91
2022/06/26 04:03:51;;;;;;;29.77;11.45;;;24.40;99.90;;;;;;6199036;23;20004;-91
2022/06/26 04:06:18;;;;;;;26.70;11.57;;;24.40;99.90;;;;;;6222552;23;20020;-91
2022/06/26 04:08:47;;;;;;;27.08;11.82;;;24.50;99.90;;;;;;6197523;23;20001;-91
2022/06/26 04:11:16;;;;;;;28.08;11.05;;;24.70;99.90;;;;;;6221972;23;20107;-91
2022/06/26 04:13:44;;;;;;;30.02;10.98;;;24.70;99.90;;;;;;6197719;23;20058;-91
2022/06/26 04:16:14;;;;;;;29.92;11.10;;;24.90;99.90;;;;;;6222365;23;20004;-92
2022/06/26 04:18:45;;;;;;;28.45;12.52;;;24.90;99.90;;;;;;6200684;23;20035;-91
2022/06/26 04:21:11;;;;;;;38.63;16.08;;;25.00;99.90;;;;;;6201109;23;20054;-90
2022/06/26 04:23:38;;;;;;;41.85;17.75;;;25.10;99.90;;;;;;6197089;23;20035;-91
2022/06/26 04:26:10;;;;;;;48.83;20.75;;;25.10;99.90;;;;;;6221754;23;20020;-91
2022/06/26 04:28:37;;;;;;;41.97;20.38;;;25.20;99.90;;;;;;6221903;23;20065;-90
2022/06/26 04:31:07;;;;;;;62.50;24.27;;;25.30;99.90;;;;;;6197678;23;20007;-90
2022/06/26 04:33:35;;;;;;;47.10;24.35;;;25.40;99.90;;;;;;6222864;23;20019;-91
2022/06/26 04:36:08;;;;;;;40.33;19.65;;;25.50;99.90;;;;;;6198558;22;20062;-92
2022/06/26 04:38:37;;;;;;;35.72;17.65;;;25.90;99.90;;;;;;6197528;23;20039;-91
2022/06/26 04:41:31;;;;;;;32.33;14.82;;;26.50;99.90;;;;;;6196471;23;20062;-90
2022/06/26 04:43:51;;;;;;;33.53;14.18;;;27.70;99.90;;;;;;6221885;23;20035;-91
2022/06/26 04:46:18;;;;;;;34.25;13.68;;;29.30;99.90;;;;;;6196526;23;20355;-91
2022/06/26 04:48:45;;;;;;;28.58;13.40;;;30.50;99.90;;;;;;6221462;23;20020;-91
2022/06/26 04:51:14;;;;;;;31.67;12.52;;;30.90;99.90;;;;;;6197574;23;20011;-91
2022/06/26 04:53:41;;;;;;;35.63;12.00;;;31.10;99.90;;;;;;6222043;23;20008;-91
2022/06/26 04:56:07;;;;;;;22.95;10.00;;;32.30;99.90;;;;;;6196738;23;20004;-92
2022/06/26 04:58:48;;;;;;;27.48;10.52;;;32.90;99.90;;;;;;6221677;23;20083;-91
2022/06/26 05:01:15;;;;;;;22.70;8.88;;;33.20;99.90;;;;;;6221685;23;20004;-92
2022/06/26 05:04:16;;;;;;;26.20;9.32;;;33.70;99.90;;;;;;6126693;23;20021;-93
2022/06/26 05:06:44;;;;;;;20.35;8.05;;;34.40;99.90;;;;;;6102317;23;20033;-92
2022/06/26 05:09:39;;;;;;;21.10;7.25;;;34.60;99.90;;;;;;5965667;24;20000;-92
2022/06/26 05:12:07;;;;;;;23.00;7.63;;;34.80;99.90;;;;;;5987826;23;20051;-92
2022/06/26 05:14:54;;;;;;;22.00;7.55;;;34.90;99.90;;;;;;5954976;23;20001;-92
2022/06/26 05:17:32;;;;;;;18.23;7.15;;;34.60;99.90;;;;;;5955366;24;20024;-92
2022/06/26 05:19:58;;;;;;;16.45;7.32;;;34.50;99.90;;;;;;5955289;24;20008;-92
2022/06/26 05:22:28;;;;;;;22.20;7.80;;;35.40;99.90;;;;;;5955140;24;20524;-92
2022/06/26 05:24:58;;;;;;;18.38;7.47;;;35.40;99.90;;;;;;5955172;24;20046;-91
2022/06/26 05:27:24;;;;;;;17.02;8.35;;;35.00;99.90;;;;;;5931944;24;20033;-92
2022/06/26 05:29:51;;;;;;;19.88;9.75;;;36.00;99.90;;;;;;5954858;24;20012;-92
2022/06/26 05:32:18;;;;;;;21.95;10.52;;;35.90;99.90;;;;;;5955090;24;20021;-91
2022/06/26 05:34:47;;;;;;;23.23;10.13;;;35.60;99.90;;;;;;5909360;24;20016;-92
2022/06/26 05:37:14;;;;;;;19.02;8.88;;;35.80;99.90;;;;;;5918541;23;20067;-92
2022/06/26 05:39:44;;;;;;;19.73;9.23;;;36.00;99.90;;;;;;6044536;23;20151;-92
2022/06/26 05:42:11;;;;;;;19.02;8.63;;;36.40;99.90;;;;;;6044541;23;20011;-92
2022/06/26 05:44:39;;;;;;;26.00;9.55;;;36.00;99.90;;;;;;6045457;23;20481;-93
2022/06/26 05:47:06;;;;;;;19.30;9.95;;;36.00;99.90;;;;;;6158794;23;20103;-93
2022/06/26 05:49:51;;;;;;;19.88;10.10;;;35.80;99.90;;;;;;6194205;23;20024;-93
2022/06/26 05:52:39;;;;;;;19.60;9.73;;;36.50;99.90;;;;;;6219475;23;20333;-93
2022/06/26 05:55:21;;;;;;;17.50;9.38;;;36.90;99.90;;;;;;6201237;23;20040;-92
2022/06/26 05:58:06;;;;;;;20.43;10.03;;;36.30;99.90;;;;;;6200569;22;20012;-92
2022/06/26 06:00:42;;;;;;;21.27;10.25;;;36.20;99.90;;;;;;6198547;23;20231;-93
